createdAt,value
2023-02-27T00:00:20.040Z,10.00
2023-02-27T00:03:23.628Z,9.80
2023-02-27T00:06:06.556Z,10.60
2023-02-27T00:08:39.375Z,9.90
2023-02-27T00:11:18.623Z,9.80
2023-02-27T00:14:03.660Z,10.00
2023-02-27T00:16:51.259Z,10.70
2023-02-27T00:19:25.188Z,10.40
2023-02-27T00:21:55.898Z,11.70
2023-02-27T00:24:29.725Z,10.90
2023-02-27T00:27:03.375Z,9.90
2023-02-27T00:29:39.912Z,11.70
2023-02-27T00:32:18.587Z,10.80
2023-02-27T00:34:56.814Z,10.20
2023-02-27T00:37:27.766Z,10.50
2023-02-27T00:40:06.021Z,10.50
2023-02-27T00:42:43.430Z,11.30
2023-02-27T00:45:27.536Z,10.30
2023-02-27T00:48:04.650Z,9.60
2023-02-27T00:50:39.965Z,11.40
2023-02-27T00:53:23.229Z,9.90
2023-02-27T00:56:02.410Z,10.40
2023-02-27T00:59:02.191Z,9.50
2023-02-27T01:01:40.034Z,9.50
2023-02-27T01:04:21.575Z,9.40
2023-02-27T01:07:04.005Z,9.40
2023-02-27T01:09:41.718Z,8.60
2023-02-27T01:12:17.043Z,9.60
2023-02-27T01:14:48.053Z,7.60
2023-02-27T01:17:21.751Z,8.20
2023-02-27T01:19:54.859Z,7.60
2023-02-27T01:22:31.256Z,7.90
2023-02-27T01:25:09.510Z,6.80
2023-02-27T01:27:50.654Z,7.80
2023-02-27T01:30:25.086Z,8.20
2023-02-27T01:33:06.604Z,6.80
2023-02-27T01:35:45.749Z,7.40
2023-02-27T01:38:24.196Z,8.50
2023-02-27T01:41:07.727Z,7.70
2023-02-27T01:44:03.390Z,8.50
2023-02-27T01:46:48.256Z,7.70
2023-02-27T01:49:33.902Z,7.30
2023-02-27T01:52:18.797Z,7.80
2023-02-27T01:55:02.056Z,8.80
2023-02-27T01:57:42.544Z,7.80
2023-02-27T02:00:18.304Z,6.80
2023-02-27T02:03:10.533Z,7.30
2023-02-27T02:05:50.856Z,7.90
2023-02-27T02:08:29.342Z,6.80
2023-02-27T02:11:06.171Z,7.70
2023-02-27T02:13:50.154Z,6.40
2023-02-27T02:17:05.890Z,6.40
2023-02-27T02:20:34.627Z,7.20
2023-02-27T02:23:30.885Z,6.30
2023-02-27T02:26:34.344Z,6.30
2023-02-27T02:29:57.002Z,6.90
2023-02-27T02:33:31.157Z,6.40
2023-02-27T02:36:55.344Z,6.00
2023-02-27T02:39:58.080Z,7.10
2023-02-27T02:43:24.887Z,8.50
2023-02-27T02:46:19.042Z,7.70
2023-02-27T02:49:11.105Z,8.80
2023-02-27T02:52:35.329Z,8.00
2023-02-27T02:55:44.979Z,9.50
2023-02-27T02:58:32.126Z,7.30
2023-02-27T03:01:27.297Z,6.90
2023-02-27T03:04:48.154Z,8.40
2023-02-27T03:07:33.796Z,7.00
2023-02-27T03:10:22.394Z,6.80
2023-02-27T03:13:03.624Z,5.50
2023-02-27T03:15:48.988Z,6.40
2023-02-27T03:18:33.944Z,6.30
2023-02-27T03:21:21.387Z,6.20
2023-02-27T03:24:12.748Z,6.70
2023-02-27T03:26:51.022Z,6.60
2023-02-27T03:29:56.897Z,8.20
2023-02-27T03:32:52.956Z,7.30
2023-02-27T03:35:50.117Z,5.90
2023-02-27T03:38:40.348Z,6.30
2023-02-27T03:41:44.188Z,6.70
2023-02-27T03:45:15.462Z,5.70
2023-02-27T03:47:52.031Z,6.30
2023-02-27T03:53:54.601Z,6.00
2023-02-27T03:56:54.368Z,6.30
2023-02-27T03:59:46.168Z,6.60
2023-02-27T04:02:24.775Z,6.40
2023-02-27T04:05:03.360Z,8.70
2023-02-27T04:08:27.846Z,6.40
2023-02-27T04:11:25.605Z,7.40
2023-02-27T04:14:57.271Z,8.10
2023-02-27T04:17:31.541Z,17.30
2023-02-27T04:20:15.315Z,6.50
2023-02-27T04:23:00.877Z,7.20
2023-02-27T04:25:51.918Z,5.50
2023-02-27T04:29:08.094Z,5.80
2023-02-27T04:32:27.930Z,5.40
2023-02-27T04:35:41.746Z,5.30
2023-02-27T04:38:39.719Z,7.00
2023-02-27T04:41:29.550Z,4.80
2023-02-27T04:44:17.802Z,4.90
2023-02-27T04:46:57.830Z,5.50
2023-02-27T04:50:05.986Z,8.00
2023-02-27T04:53:05.299Z,8.30
2023-02-27T04:55:59.346Z,9.40
2023-02-27T04:58:53.189Z,9.30
2023-02-27T05:01:47.486Z,7.30
2023-02-27T05:04:53.120Z,7.20
2023-02-27T05:07:41.902Z,6.50
2023-02-27T05:10:38.350Z,5.90
2023-02-27T05:13:26.600Z,7.70
2023-02-27T05:16:24.041Z,5.80
2023-02-27T05:19:04.060Z,6.90
2023-02-27T05:21:59.392Z,5.30
2023-02-27T05:25:04.151Z,5.60
2023-02-27T05:27:47.420Z,7.00
2023-02-27T05:30:56.733Z,6.90
2023-02-27T05:34:16.943Z,7.50
2023-02-27T05:37:20.849Z,8.50
2023-02-27T05:40:08.716Z,7.70
2023-02-27T05:42:46.980Z,7.00
2023-02-27T05:45:42.591Z,6.80
2023-02-27T05:48:48.051Z,9.30
2023-02-27T05:51:37.353Z,11.50
2023-02-27T05:54:55.354Z,10.30
2023-02-27T06:01:08.057Z,10.00
2023-02-27T06:03:52.694Z,9.50
2023-02-27T06:06:37.199Z,9.90
2023-02-27T06:09:11.947Z,9.00
2023-02-27T06:11:55.059Z,11.30
2023-02-27T06:14:30.737Z,10.80
2023-02-27T06:17:13.068Z,10.70
2023-02-27T06:19:47.242Z,11.90
2023-02-27T06:22:22.059Z,17.70
2023-02-27T06:24:57.082Z,19.70
2023-02-27T06:27:41.736Z,22.60
2023-02-27T06:30:26.886Z,28.70
2023-02-27T06:33:17.423Z,20.30
2023-02-27T06:36:02.372Z,17.70
2023-02-27T06:38:41.259Z,19.00
2023-02-27T06:41:21.060Z,20.50
2023-02-27T06:43:57.202Z,21.10
2023-02-27T06:46:36.687Z,19.30
2023-02-27T06:49:07.684Z,19.00
2023-02-27T06:51:52.349Z,20.70
2023-02-27T06:54:29.485Z,19.60
2023-02-27T06:57:05.563Z,18.70
2023-02-27T06:59:36.154Z,20.70
2023-02-27T07:02:24.498Z,21.10
2023-02-27T07:05:10.434Z,17.20
2023-02-27T07:07:53.463Z,17.80
2023-02-27T07:10:49.412Z,19.00
2023-02-27T07:13:58.017Z,17.90
2023-02-27T07:16:46.730Z,16.90
2023-02-27T07:20:20.964Z,17.20
2023-02-27T07:24:01.640Z,15.90
2023-02-27T07:27:03.793Z,16.80
2023-02-27T07:29:42.056Z,16.30
2023-02-27T07:32:45.820Z,14.70
2023-02-27T07:35:51.056Z,17.00
2023-02-27T07:38:32.774Z,16.20
2023-02-27T07:41:30.365Z,13.80
2023-02-27T07:44:19.871Z,15.50
2023-02-27T07:47:24.649Z,16.50
2023-02-27T07:53:28.914Z,14.00
2023-02-27T07:56:39.435Z,15.80
2023-02-27T07:59:51.257Z,15.70
2023-02-27T08:02:55.727Z,18.00
2023-02-27T08:05:43.899Z,19.80
2023-02-27T08:08:51.734Z,15.10
2023-02-27T08:11:54.645Z,18.00
2023-02-27T08:14:37.465Z,18.40
2023-02-27T08:17:39.206Z,14.90
2023-02-27T08:20:26.216Z,13.60
2023-02-27T08:23:33.185Z,11.10
2023-02-27T08:26:55.402Z,12.70
2023-02-27T08:30:14.549Z,12.30
2023-02-27T08:40:33.090Z,11.40
2023-02-27T08:43:43.949Z,12.60
2023-02-27T08:47:31.254Z,9.80
2023-02-27T08:51:02.732Z,10.00
2023-02-27T08:54:40.318Z,11.40
2023-02-27T08:58:25.886Z,10.60
2023-02-27T09:01:32.222Z,10.40
2023-02-27T09:04:34.171Z,10.90
2023-02-27T09:07:22.458Z,12.20
2023-02-27T09:10:17.435Z,11.30
2023-02-27T09:13:05.393Z,12.60
2023-02-27T09:15:49.661Z,12.00
2023-02-27T09:19:06.811Z,10.20
2023-02-27T09:21:58.107Z,11.90
2023-02-27T09:25:01.736Z,11.60
2023-02-27T09:28:31.932Z,11.50
2023-02-27T09:34:24.593Z,12.10
2023-02-27T09:37:44.346Z,10.10
2023-02-27T09:40:38.885Z,14.80
2023-02-27T09:43:52.143Z,14.80
2023-02-27T09:46:42.235Z,10.80
2023-02-27T09:49:35.711Z,10.80
2023-02-27T09:52:24.519Z,13.50
2023-02-27T09:55:25.662Z,12.40
2023-02-27T09:58:20.836Z,10.80
2023-02-27T10:04:37.958Z,9.70
2023-02-27T10:07:51.645Z,8.50
2023-02-27T10:11:14.174Z,8.20
2023-02-27T10:14:33.042Z,7.50
2023-02-27T10:17:53.471Z,7.70
2023-02-27T10:20:51.600Z,8.00
2023-02-27T10:24:11.072Z,9.30
2023-02-27T10:27:08.575Z,7.30
2023-02-27T10:30:28.332Z,6.50
2023-02-27T10:33:28.081Z,5.90
2023-02-27T10:36:30.614Z,5.80
2023-02-27T10:39:34.910Z,5.20
2023-02-27T10:42:19.542Z,5.60
2023-02-27T10:45:04.093Z,6.40
2023-02-27T10:48:09.443Z,4.70
2023-02-27T10:51:21.779Z,4.90
2023-02-27T10:54:40.474Z,7.30
2023-02-27T10:58:03.836Z,4.80
2023-02-27T11:01:11.531Z,4.30
2023-02-27T11:07:05.771Z,3.50
2023-02-27T11:10:19.501Z,3.40
2023-02-27T11:13:26.690Z,2.60
2023-02-27T11:16:57.831Z,3.20
2023-02-27T11:19:51.409Z,3.30
2023-02-27T11:26:54.806Z,3.70
2023-02-27T11:30:02.754Z,5.50
2023-02-27T11:34:04.305Z,3.30
2023-02-27T11:41:05.887Z,5.50
2023-02-27T11:44:50.908Z,4.60
2023-02-27T11:48:00.950Z,3.80
2023-02-27T11:51:55.602Z,4.30
2023-02-27T11:55:29.301Z,3.80
2023-02-27T11:58:50.867Z,2.90
2023-02-27T12:02:23.588Z,3.60
2023-02-27T12:06:12.526Z,2.50
2023-02-27T12:10:46.425Z,4.10
2023-02-27T12:14:39.185Z,5.10
2023-02-27T12:17:54.304Z,4.30
2023-02-27T12:23:52.135Z,2.90
2023-02-27T12:26:50.607Z,7.70
2023-02-27T12:29:40.716Z,6.00
2023-02-27T12:32:38.837Z,3.40
2023-02-27T12:39:38.377Z,3.20
2023-02-27T12:58:43.331Z,2.60
2023-02-27T13:02:24.478Z,3.10
2023-02-27T13:06:50.872Z,4.10
2023-02-27T13:10:56.638Z,2.90
2023-02-27T13:14:06.345Z,2.80
2023-02-27T13:17:13.702Z,2.40
2023-02-27T13:19:53.289Z,3.10
2023-02-27T13:22:49.089Z,2.70
2023-02-27T13:25:57.793Z,4.20
2023-02-27T13:29:14.947Z,2.80
2023-02-27T13:33:11.654Z,2.50
2023-02-27T13:37:18.993Z,3.10
2023-02-27T13:41:35.864Z,2.70
2023-02-27T13:48:40.079Z,10.20
2023-02-27T13:52:06.227Z,15.90
2023-02-27T13:55:55.619Z,6.10
2023-02-27T14:00:02.302Z,5.20
2023-02-27T14:04:35.503Z,7.60
2023-02-27T14:19:10.332Z,10.30
2023-02-27T15:31:33.298Z,6.90
2023-02-27T15:34:41.765Z,5.90
2023-02-27T15:38:09.200Z,7.00
2023-02-27T15:41:29.305Z,11.20
2023-02-27T15:45:24.694Z,7.00
2023-02-27T15:48:34.434Z,8.90
2023-02-27T15:51:22.880Z,8.30
2023-02-27T15:54:19.638Z,9.10
2023-02-27T15:57:34.855Z,7.70
2023-02-27T16:00:26.016Z,10.40
2023-02-27T16:03:43.225Z,9.70
2023-02-27T16:06:39.931Z,5.60
2023-02-27T16:09:51.675Z,5.90
2023-02-27T16:17:02.762Z,7.90
2023-02-27T16:20:40.134Z,10.30
2023-02-27T16:24:59.544Z,11.00
2023-02-27T16:27:17.268Z,11.20
2023-02-27T16:30:48.908Z,9.00
2023-02-27T16:33:43.208Z,9.70
2023-02-27T16:36:38.967Z,12.10
2023-02-27T16:39:29.104Z,17.80
2023-02-27T16:42:27.913Z,17.70
2023-02-27T16:45:53.288Z,16.90
2023-02-27T16:48:50.935Z,18.70
2023-02-27T16:58:45.354Z,24.30
2023-02-27T17:01:47.857Z,26.60
2023-02-27T17:08:57.432Z,22.00
2023-02-27T17:11:33.897Z,24.30
2023-02-27T17:14:04.586Z,25.30
2023-02-27T17:16:33.557Z,28.70
2023-02-27T17:19:01.330Z,24.60
2023-02-27T17:21:30.533Z,22.00
2023-02-27T17:23:59.701Z,17.50
2023-02-27T17:26:29.081Z,18.80
2023-02-27T17:28:58.706Z,26.10
2023-02-27T17:31:27.525Z,38.70
2023-02-27T17:33:56.368Z,42.70
2023-02-27T17:36:26.155Z,36.70
2023-02-27T17:39:02.709Z,45.10
2023-02-27T17:41:33.083Z,27.60
2023-02-27T17:44:02.296Z,27.90
2023-02-27T17:46:31.747Z,24.90
2023-02-27T17:49:01.197Z,20.50
2023-02-27T17:51:31.825Z,22.40
2023-02-27T17:54:03.183Z,22.90
2023-02-27T17:56:33.386Z,24.10
2023-02-27T17:59:03.614Z,25.80
2023-02-27T18:01:32.534Z,27.30
2023-02-27T18:04:01.418Z,28.20
2023-02-27T18:06:30.587Z,33.70
2023-02-27T18:08:59.736Z,29.20
2023-02-27T18:11:28.707Z,28.40
2023-02-27T18:13:57.912Z,43.60
2023-02-27T18:16:27.117Z,47.10
2023-02-27T18:18:56.265Z,35.90
2023-02-27T18:21:25.167Z,33.30
2023-02-27T18:23:54.882Z,29.10
2023-02-27T18:26:30.443Z,34.70
2023-02-27T18:29:07.093Z,34.90
2023-02-27T18:32:13.911Z,35.90
2023-02-27T18:45:03.631Z,36.90
2023-02-27T18:53:31.990Z,40.10
2023-02-27T18:57:04.820Z,42.30
2023-02-27T19:20:07.044Z,43.60
2023-02-27T19:24:25.005Z,49.60
2023-02-27T20:40:03.650Z,35.90
2023-02-27T20:42:34.069Z,35.80
2023-02-27T20:49:49.576Z,32.90
2023-02-27T20:53:27.297Z,29.40
2023-02-27T21:01:13.433Z,27.60
2023-02-27T21:35:36.030Z,43.20
2023-02-27T21:39:07.321Z,34.20
2023-02-27T21:43:11.125Z,32.30
2023-02-27T22:50:33.702Z,30.50
2023-02-27T23:29:03.769Z,27.50
2023-02-27T23:33:02.363Z,24.90
2023-02-27T23:41:10.086Z,19.90
2023-02-27T23:45:13.722Z,23.10
